createdAt,value
2022-09-16T00:00:55.377Z,1.08
2022-09-16T00:04:57.072Z,0.75
2022-09-16T00:09:03.297Z,0.70
2022-09-16T00:13:05.437Z,0.65
2022-09-16T00:17:07.048Z,0.60
2022-09-16T00:21:10.161Z,0.90
2022-09-16T00:25:11.816Z,0.70
2022-09-16T00:29:13.427Z,0.60
2022-09-16T00:33:15.740Z,0.70
2022-09-16T00:37:17.655Z,0.80
2022-09-16T00:41:24.823Z,0.95
2022-09-16T00:45:31.408Z,0.68
2022-09-16T00:49:33.045Z,0.93
2022-09-16T00:53:43.088Z,0.70
2022-09-16T00:57:46.139Z,0.65
2022-09-16T01:01:49.198Z,1.02
2022-09-16T01:05:50.889Z,0.60
2022-09-16T01:09:53.239Z,0.70
2022-09-16T01:14:15.908Z,1.02
2022-09-16T01:18:38.582Z,0.70
2022-09-16T01:23:09.206Z,0.65
2022-09-16T01:27:19.880Z,0.90
2022-09-16T01:31:38.715Z,0.68
2022-09-16T01:35:59.014Z,0.60
2022-09-16T01:40:28.331Z,0.60
2022-09-16T01:44:51.065Z,0.80
2022-09-16T01:49:02.503Z,0.68
2022-09-16T01:53:17.893Z,0.80
2022-09-16T01:58:00.629Z,0.70
2022-09-16T02:02:17.535Z,0.57
2022-09-16T02:06:23.441Z,0.65
2022-09-16T02:10:33.074Z,0.85
2022-09-16T02:14:42.807Z,0.75
2022-09-16T02:18:51.688Z,0.73
2022-09-16T02:23:03.574Z,0.90
2022-09-16T02:27:10.504Z,1.00
2022-09-16T02:31:14.281Z,1.10
2022-09-16T02:35:18.911Z,0.85
2022-09-16T02:39:27.236Z,1.00
2022-09-16T02:43:29.460Z,0.82
2022-09-16T02:47:43.947Z,1.10
2022-09-16T02:52:00.058Z,0.90
2022-09-16T02:56:09.403Z,1.00
2022-09-16T03:00:11.243Z,0.80
2022-09-16T03:04:15.637Z,1.10
2022-09-16T03:08:17.266Z,1.50
2022-09-16T03:12:37.491Z,1.00
2022-09-16T03:16:54.107Z,1.10
2022-09-16T03:21:24.525Z,0.93
2022-09-16T03:25:57.531Z,0.90
2022-09-16T03:30:08.679Z,1.00
2022-09-16T03:34:24.119Z,1.08
2022-09-16T03:38:27.067Z,1.08
2022-09-16T03:42:28.810Z,0.80
2022-09-16T03:46:30.614Z,0.95
2022-09-16T03:50:32.300Z,1.10
2022-09-16T03:54:34.995Z,1.10
2022-09-16T03:58:36.695Z,1.12
2022-09-16T04:02:38.553Z,0.98
2022-09-16T04:06:40.301Z,1.37
2022-09-16T04:10:41.919Z,1.02
2022-09-16T04:14:43.542Z,1.30
2022-09-16T04:18:45.175Z,1.37
2022-09-16T04:22:46.792Z,1.50
2022-09-16T04:26:48.381Z,1.20
2022-09-16T04:30:50.334Z,1.30
2022-09-16T04:34:52.046Z,1.98
2022-09-16T04:38:53.837Z,1.80
2022-09-16T04:42:55.537Z,2.10
2022-09-16T04:46:57.216Z,2.20
2022-09-16T04:51:04.769Z,1.80
2022-09-16T04:55:06.667Z,2.10
2022-09-16T04:59:10.162Z,2.50
2022-09-16T05:03:11.869Z,2.28
2022-09-16T05:07:13.580Z,2.42
2022-09-16T05:11:18.286Z,2.20
2022-09-16T05:15:20.124Z,2.42
2022-09-16T05:19:22.108Z,2.42
2022-09-16T05:23:24.106Z,2.97
2022-09-16T05:27:27.902Z,3.00
2022-09-16T05:31:31.793Z,3.00
2022-09-16T05:35:33.528Z,2.17
2022-09-16T05:39:35.204Z,2.40
2022-09-16T05:43:37.451Z,5.10
2022-09-16T05:47:39.201Z,2.65
2022-09-16T05:51:43.758Z,2.37
2022-09-16T05:55:59.192Z,2.10
2022-09-16T06:00:00.965Z,2.50
2022-09-16T06:04:05.585Z,2.55
2022-09-16T06:08:07.192Z,2.50
2022-09-16T06:12:10.395Z,2.12
2022-09-16T06:16:14.367Z,2.20
2022-09-16T06:20:16.055Z,2.00
2022-09-16T06:24:19.063Z,2.58
2022-09-16T06:28:20.709Z,2.00
2022-09-16T06:32:22.380Z,2.00
2022-09-16T06:36:27.886Z,1.87
2022-09-16T06:40:29.539Z,1.85
2022-09-16T06:44:31.215Z,2.50
2022-09-16T06:48:36.387Z,1.62
2022-09-16T06:52:38.019Z,2.00
2022-09-16T06:56:41.324Z,1.85
2022-09-16T07:00:42.984Z,1.70
2022-09-16T07:04:44.647Z,1.62
2022-09-16T07:08:46.958Z,2.00
2022-09-16T07:12:48.602Z,2.15
2022-09-16T07:16:50.276Z,1.70
2022-09-16T07:20:51.962Z,1.80
2022-09-16T07:24:54.183Z,1.67
2022-09-16T07:28:58.175Z,1.87
2022-09-16T07:33:00.353Z,2.37
2022-09-16T07:37:01.973Z,1.90
2022-09-16T07:41:13.312Z,1.90
2022-09-16T07:45:14.955Z,2.33
2022-09-16T07:49:17.192Z,1.77
2022-09-16T07:53:18.831Z,2.10
2022-09-16T07:57:20.757Z,1.83
2022-09-16T08:01:23.372Z,1.60
2022-09-16T08:05:25.174Z,1.37
2022-09-16T08:09:38.109Z,2.15
2022-09-16T08:13:43.107Z,2.28
2022-09-16T08:17:44.850Z,1.83
2022-09-16T08:21:46.735Z,1.67
2022-09-16T08:25:55.720Z,1.67
2022-09-16T08:29:57.336Z,1.85
2022-09-16T08:33:58.944Z,1.30
2022-09-16T08:38:00.602Z,1.30
2022-09-16T08:42:28.402Z,1.40
2022-09-16T08:46:37.291Z,1.00
2022-09-16T08:50:42.723Z,1.40
2022-09-16T08:54:51.675Z,1.17
2022-09-16T08:59:01.070Z,1.00
2022-09-16T09:03:31.980Z,1.10
2022-09-16T09:08:13.231Z,2.42
2022-09-16T09:12:41.833Z,0.88
2022-09-16T09:17:08.658Z,0.75
2022-09-16T09:21:51.959Z,1.20
2022-09-16T09:26:13.570Z,0.70
2022-09-16T09:30:21.691Z,1.08
2022-09-16T09:34:41.103Z,0.50
2022-09-16T09:38:46.592Z,0.70
2022-09-16T09:43:11.052Z,0.95
2022-09-16T09:47:20.181Z,0.85
2022-09-16T09:51:32.921Z,0.60
2022-09-16T09:55:35.621Z,0.75
2022-09-16T10:00:10.100Z,0.70
2022-09-16T10:04:15.689Z,0.37
2022-09-16T10:08:29.536Z,0.73
2022-09-16T10:12:34.900Z,0.50
2022-09-16T10:16:37.890Z,0.80
2022-09-16T10:20:44.278Z,0.65
2022-09-16T10:24:57.439Z,0.40
2022-09-16T10:29:19.456Z,0.43
2022-09-16T10:33:29.338Z,0.50
2022-09-16T10:37:31.014Z,1.02
2022-09-16T10:41:34.561Z,0.55
2022-09-16T10:50:03.122Z,0.70
2022-09-16T10:54:06.086Z,0.62
2022-09-16T10:58:17.708Z,0.60
2022-09-16T11:02:44.120Z,0.75
2022-09-16T11:07:09.603Z,0.45
2022-09-16T11:11:36.290Z,0.70
2022-09-16T11:15:50.841Z,0.75
2022-09-16T11:20:04.429Z,0.90
2022-09-16T11:24:16.386Z,0.70
2022-09-16T11:28:40.194Z,0.62
2022-09-16T11:33:19.645Z,0.55
2022-09-16T11:37:48.095Z,0.47
2022-09-16T11:42:17.566Z,1.27
2022-09-16T11:47:01.624Z,1.83
2022-09-16T11:51:11.387Z,0.70
2022-09-16T11:55:19.310Z,1.00
2022-09-16T11:59:41.771Z,0.82
2022-09-16T12:03:58.975Z,0.73
2022-09-16T12:08:03.486Z,0.70
2022-09-16T12:12:18.484Z,0.93
2022-09-16T12:16:36.665Z,0.75
2022-09-16T12:20:51.020Z,0.90
2022-09-16T12:25:20.218Z,0.50
2022-09-16T12:29:31.735Z,0.20
2022-09-16T12:33:40.231Z,0.28
2022-09-16T12:37:50.764Z,0.40
2022-09-16T12:42:11.237Z,0.22
2022-09-16T12:46:39.153Z,0.50
2022-09-16T12:55:15.184Z,0.37
2022-09-16T12:59:25.727Z,0.40
2022-09-16T13:03:31.240Z,0.37
2022-09-16T13:07:35.521Z,0.30
2022-09-16T13:16:01.840Z,0.35
2022-09-16T13:20:12.299Z,0.80
2022-09-16T13:24:39.331Z,0.50
2022-09-16T13:28:43.960Z,0.60
2022-09-16T13:32:51.828Z,0.40
2022-09-16T13:36:53.487Z,0.60
2022-09-16T13:41:01.663Z,0.40
2022-09-16T13:45:03.461Z,0.52
2022-09-16T13:49:05.263Z,0.52
2022-09-16T13:53:29.095Z,0.90
2022-09-16T13:57:52.921Z,0.70
2022-09-16T14:02:12.556Z,0.43
2022-09-16T14:06:57.117Z,0.50
2022-09-16T14:11:13.485Z,0.52
2022-09-16T14:15:16.123Z,0.30
2022-09-16T14:19:36.596Z,0.32
2022-09-16T14:23:38.283Z,0.37
2022-09-16T14:27:40.240Z,0.30
2022-09-16T14:31:45.175Z,0.50
2022-09-16T14:35:48.637Z,0.30
2022-09-16T14:44:20.107Z,0.20
2022-09-16T14:48:29.547Z,0.40
2022-09-16T14:52:32.510Z,0.40
2022-09-16T14:56:34.177Z,0.35
2022-09-16T15:01:10.356Z,0.52
2022-09-16T15:05:22.824Z,0.40
2022-09-16T15:09:30.548Z,0.40
2022-09-16T15:13:38.506Z,0.90
2022-09-16T15:17:40.238Z,0.55
2022-09-16T15:21:44.592Z,0.50
2022-09-16T15:26:19.338Z,0.68
2022-09-16T15:30:25.884Z,0.50
2022-09-16T15:34:27.897Z,0.40
2022-09-16T15:38:31.190Z,0.55
2022-09-16T15:42:32.910Z,0.52
2022-09-16T15:46:34.580Z,0.47
2022-09-16T15:50:56.270Z,0.65
2022-09-16T15:55:01.699Z,0.60
2022-09-16T15:59:20.583Z,0.70
2022-09-16T16:03:22.255Z,0.62
2022-09-16T16:08:08.959Z,0.85
2022-09-16T16:12:19.943Z,0.77
2022-09-16T16:16:22.380Z,0.70
2022-09-16T16:20:24.493Z,0.82
2022-09-16T16:24:27.284Z,0.70
2022-09-16T16:28:28.967Z,0.80
2022-09-16T16:32:31.639Z,0.73
2022-09-16T16:36:33.219Z,1.05
2022-09-16T16:40:34.926Z,0.68
2022-09-16T16:44:36.798Z,0.60
2022-09-16T16:48:39.200Z,0.60
2022-09-16T16:52:40.855Z,0.60
2022-09-16T16:56:42.485Z,0.50
2022-09-16T17:00:44.162Z,0.60
2022-09-16T17:04:46.055Z,0.60
2022-09-16T17:08:47.742Z,0.70
2022-09-16T17:12:49.417Z,0.62
2022-09-16T17:16:51.706Z,0.68
2022-09-16T17:20:53.285Z,0.90
2022-09-16T17:24:55.156Z,0.80
2022-09-16T17:28:57.764Z,1.30
2022-09-16T17:32:59.471Z,0.90
2022-09-16T17:37:01.715Z,1.33
2022-09-16T17:41:09.739Z,0.95
2022-09-16T17:45:35.340Z,1.15
2022-09-16T17:49:36.961Z,1.20
2022-09-16T17:53:38.763Z,1.17
2022-09-16T17:57:40.375Z,0.77
2022-09-16T18:01:42.079Z,1.42
2022-09-16T18:05:44.920Z,0.62
2022-09-16T18:09:46.666Z,1.25
2022-09-16T18:13:53.470Z,1.00
2022-09-16T18:17:55.235Z,1.00
2022-09-16T18:21:56.880Z,0.65
2022-09-16T18:26:05.370Z,2.40
2022-09-16T18:30:07.626Z,1.10
2022-09-16T18:34:09.359Z,1.02
2022-09-16T18:38:12.794Z,1.00
2022-09-16T18:42:14.412Z,1.25
2022-09-16T18:46:21.840Z,0.90
2022-09-16T18:50:25.851Z,0.90
2022-09-16T18:54:29.111Z,1.15
2022-09-16T18:58:30.839Z,0.73
2022-09-16T19:02:32.498Z,0.93
2022-09-16T19:06:36.827Z,0.90
2022-09-16T19:10:38.595Z,0.95
2022-09-16T19:14:41.117Z,0.77
2022-09-16T19:18:42.745Z,0.80
2022-09-16T19:22:44.397Z,0.70
2022-09-16T19:26:47.500Z,0.90
2022-09-16T19:30:49.522Z,0.80
2022-09-16T19:34:51.293Z,1.00
2022-09-16T19:38:54.321Z,0.82
2022-09-16T19:42:55.991Z,0.73
2022-09-16T19:46:57.716Z,0.82
2022-09-16T19:50:59.532Z,1.10
2022-09-16T19:55:01.250Z,0.88
2022-09-16T19:59:03.332Z,1.00
2022-09-16T20:03:05.012Z,0.70
2022-09-16T20:07:12.532Z,1.25
2022-09-16T20:11:19.832Z,0.80
2022-09-16T20:19:23.495Z,1.08
2022-09-16T20:23:25.110Z,1.00
2022-09-16T20:27:26.871Z,1.30
2022-09-16T20:31:31.276Z,0.82
2022-09-16T20:35:34.166Z,1.05
2022-09-16T20:39:35.792Z,1.05
2022-09-16T20:43:37.839Z,0.80
2022-09-16T20:47:39.519Z,1.55
2022-09-16T20:51:41.386Z,1.00
2022-09-16T20:55:43.047Z,1.87
2022-09-16T20:59:44.668Z,0.90
2022-09-16T21:03:51.609Z,0.98
2022-09-16T21:07:53.280Z,0.88
2022-09-16T21:11:55.776Z,0.90
2022-09-16T21:15:58.681Z,1.23
2022-09-16T21:20:00.334Z,1.00
2022-09-16T21:24:02.178Z,1.20
2022-09-16T21:28:03.769Z,0.93
2022-09-16T21:32:05.473Z,1.40
2022-09-16T21:36:11.254Z,1.30
2022-09-16T21:40:14.048Z,1.10
2022-09-16T21:44:16.350Z,1.00
2022-09-16T21:48:19.226Z,1.30
2022-09-16T21:52:20.883Z,1.30
2022-09-16T21:56:23.623Z,1.58
2022-09-16T22:00:25.297Z,1.17
2022-09-16T22:04:27.005Z,1.17
2022-09-16T22:08:28.659Z,1.17
2022-09-16T22:12:30.263Z,1.40
2022-09-16T22:16:34.167Z,1.52
2022-09-16T22:20:35.755Z,1.37
2022-09-16T22:24:37.329Z,1.23
2022-09-16T22:28:39.857Z,0.90
2022-09-16T22:32:41.470Z,1.23
2022-09-16T22:36:43.201Z,1.20
2022-09-16T22:40:44.790Z,1.20
2022-09-16T22:44:46.397Z,0.82
2022-09-16T22:48:49.257Z,1.20
2022-09-16T22:52:50.934Z,1.27
2022-09-16T22:56:52.551Z,1.83
2022-09-16T23:01:03.915Z,1.15
2022-09-16T23:05:07.245Z,1.55
2022-09-16T23:09:10.990Z,1.30
2022-09-16T23:13:13.460Z,1.70
2022-09-16T23:17:15.068Z,1.20
2022-09-16T23:21:19.974Z,1.98
2022-09-16T23:25:22.711Z,1.33
2022-09-16T23:29:24.303Z,1.08
2022-09-16T23:33:25.913Z,1.30
2022-09-16T23:37:29.534Z,1.37
2022-09-16T23:41:31.931Z,1.50
2022-09-16T23:45:34.544Z,1.20
2022-09-16T23:49:36.191Z,1.30
2022-09-16T23:53:38.861Z,1.35
2022-09-16T23:57:42.303Z,1.30
